sensor_id;sensor_type;location;lat;lon;timestamp;P1;durP1;ratioP1;P2;durP2;ratioP2
60722;SDS011;46574;52.818;6.516;2022-08-14T00:01:54;8.10;;;7.40;;
60722;SDS011;46574;52.818;6.516;2022-08-14T00:04:19;7.47;;;6.85;;
60722;SDS011;46574;52.818;6.516;2022-08-14T00:06:45;8.32;;;6.78;;
60722;SDS011;46574;52.818;6.516;2022-08-14T00:09:10;7.63;;;7.00;;
60722;SDS011;46574;52.818;6.516;2022-08-14T00:11:36;6.72;;;6.18;;
60722;SDS011;46574;52.818;6.516;2022-08-14T00:14:02;10.05;;;7.38;;
60722;SDS011;46574;52.818;6.516;2022-08-14T00:16:28;9.90;;;8.90;;
60722;SDS011;46574;52.818;6.516;2022-08-14T00:18:54;9.40;;;8.60;;
60722;SDS011;46574;52.818;6.516;2022-08-14T00:21:19;7.88;;;7.22;;
60722;SDS011;46574;52.818;6.516;2022-08-14T00:23:45;8.00;;;7.28;;
60722;SDS011;46574;52.818;6.516;2022-08-14T00:26:11;8.10;;;7.18;;
60722;SDS011;46574;52.818;6.516;2022-08-14T00:28:36;8.85;;;8.13;;
60722;SDS011;46574;52.818;6.516;2022-08-14T00:31:03;8.75;;;8.00;;
60722;SDS011;46574;52.818;6.516;2022-08-14T00:33:30;8.70;;;8.00;;
60722;SDS011;46574;52.818;6.516;2022-08-14T00:35:56;8.57;;;7.78;;
60722;SDS011;46574;52.818;6.516;2022-08-14T00:38:22;9.32;;;8.43;;
60722;SDS011;46574;52.818;6.516;2022-08-14T00:40:48;8.88;;;7.97;;
60722;SDS011;46574;52.818;6.516;2022-08-14T00:43:14;9.57;;;8.45;;
60722;SDS011;46574;52.818;6.516;2022-08-14T00:45:40;9.93;;;8.40;;
60722;SDS011;46574;52.818;6.516;2022-08-14T00:48:07;9.95;;;8.48;;
60722;SDS011;46574;52.818;6.516;2022-08-14T00:50:34;9.38;;;8.48;;
60722;SDS011;46574;52.818;6.516;2022-08-14T00:53:00;9.40;;;8.50;;
60722;SDS011;46574;52.818;6.516;2022-08-14T00:55:28;9.10;;;8.30;;
60722;SDS011;46574;52.818;6.516;2022-08-14T00:57:55;9.77;;;8.82;;
60722;SDS011;46574;52.818;6.516;2022-08-14T01:00:41;11.20;;;8.90;;
60722;SDS011;46574;52.818;6.516;2022-08-14T01:03:08;8.50;;;7.70;;
60722;SDS011;46574;52.818;6.516;2022-08-14T01:05:34;8.60;;;7.80;;
60722;SDS011;46574;52.818;6.516;2022-08-14T01:08:00;8.10;;;7.40;;
60722;SDS011;46574;52.818;6.516;2022-08-14T01:10:27;8.98;;;8.27;;
60722;SDS011;46574;52.818;6.516;2022-08-14T01:13:12;8.80;;;7.93;;
60722;SDS011;46574;52.818;6.516;2022-08-14T01:15:48;8.98;;;8.27;;
60722;SDS011;46574;52.818;6.516;2022-08-14T01:18:16;9.98;;;8.95;;
60722;SDS011;46574;52.818;6.516;2022-08-14T01:21:01;9.85;;;9.05;;
60722;SDS011;46574;52.818;6.516;2022-08-14T01:23:36;9.13;;;8.32;;
60722;SDS011;46574;52.818;6.516;2022-08-14T01:26:05;8.82;;;8.07;;
60722;SDS011;46574;52.818;6.516;2022-08-14T01:28:31;10.43;;;9.38;;
60722;SDS011;46574;52.818;6.516;2022-08-14T01:31:09;9.65;;;8.75;;
60722;SDS011;46574;52.818;6.516;2022-08-14T01:33:40;10.82;;;9.63;;
60722;SDS011;46574;52.818;6.516;2022-08-14T01:36:10;9.60;;;8.60;;
60722;SDS011;46574;52.818;6.516;2022-08-14T01:38:37;10.15;;;9.15;;
60722;SDS011;46574;52.818;6.516;2022-08-14T01:41:06;8.85;;;8.02;;
60722;SDS011;46574;52.818;6.516;2022-08-14T01:43:50;9.55;;;8.45;;
60722;SDS011;46574;52.818;6.516;2022-08-14T01:46:19;8.07;;;7.38;;
60722;SDS011;46574;52.818;6.516;2022-08-14T01:48:47;9.77;;;8.98;;
60722;SDS011;46574;52.818;6.516;2022-08-14T01:51:14;8.88;;;8.07;;
60722;SDS011;46574;52.818;6.516;2022-08-14T01:53:42;9.00;;;8.10;;
60722;SDS011;46574;52.818;6.516;2022-08-14T01:56:13;9.75;;;8.75;;
60722;SDS011;46574;52.818;6.516;2022-08-14T01:58:43;8.82;;;7.95;;
60722;SDS011;46574;52.818;6.516;2022-08-14T02:01:17;10.50;;;9.27;;
60722;SDS011;46574;52.818;6.516;2022-08-14T02:03:44;10.10;;;9.10;;
60722;SDS011;46574;52.818;6.516;2022-08-14T02:06:11;10.27;;;8.50;;
60722;SDS011;46574;52.818;6.516;2022-08-14T02:08:38;9.50;;;8.57;;
60722;SDS011;46574;52.818;6.516;2022-08-14T02:11:05;10.27;;;9.30;;
60722;SDS011;46574;52.818;6.516;2022-08-14T02:13:41;10.57;;;9.63;;
60722;SDS011;46574;52.818;6.516;2022-08-14T02:16:10;10.63;;;9.52;;
60722;SDS011;46574;52.818;6.516;2022-08-14T02:18:37;10.25;;;9.32;;
60722;SDS011;46574;52.818;6.516;2022-08-14T02:21:04;13.32;;;11.23;;
60722;SDS011;46574;52.818;6.516;2022-08-14T02:23:30;10.80;;;9.75;;
60722;SDS011;46574;52.818;6.516;2022-08-14T02:25:57;9.95;;;8.82;;
60722;SDS011;46574;52.818;6.516;2022-08-14T02:28:24;9.87;;;8.63;;
60722;SDS011;46574;52.818;6.516;2022-08-14T02:30:54;10.68;;;9.68;;
60722;SDS011;46574;52.818;6.516;2022-08-14T02:33:20;12.20;;;9.60;;
60722;SDS011;46574;52.818;6.516;2022-08-14T02:35:47;10.02;;;9.07;;
60722;SDS011;46574;52.818;6.516;2022-08-14T02:38:13;9.27;;;8.57;;
60722;SDS011;46574;52.818;6.516;2022-08-14T02:40:38;9.70;;;8.82;;
60722;SDS011;46574;52.818;6.516;2022-08-14T02:43:04;10.27;;;8.68;;
60722;SDS011;46574;52.818;6.516;2022-08-14T02:45:31;11.00;;;9.70;;
60722;SDS011;46574;52.818;6.516;2022-08-14T02:47:58;11.10;;;10.02;;
60722;SDS011;46574;52.818;6.516;2022-08-14T02:50:30;11.07;;;9.98;;
60722;SDS011;46574;52.818;6.516;2022-08-14T02:52:56;10.98;;;9.88;;
60722;SDS011;46574;52.818;6.516;2022-08-14T02:55:22;9.45;;;8.52;;
60722;SDS011;46574;52.818;6.516;2022-08-14T02:57:48;10.90;;;9.82;;
60722;SDS011;46574;52.818;6.516;2022-08-14T03:00:16;10.93;;;9.88;;
60722;SDS011;46574;52.818;6.516;2022-08-14T03:02:42;10.75;;;9.57;;
60722;SDS011;46574;52.818;6.516;2022-08-14T03:05:08;11.73;;;10.60;;
60722;SDS011;46574;52.818;6.516;2022-08-14T03:07:36;10.23;;;9.32;;
60722;SDS011;46574;52.818;6.516;2022-08-14T03:10:02;10.77;;;9.77;;
60722;SDS011;46574;52.818;6.516;2022-08-14T03:12:28;10.10;;;9.20;;
60722;SDS011;46574;52.818;6.516;2022-08-14T03:14:56;9.98;;;9.05;;
60722;SDS011;46574;52.818;6.516;2022-08-14T03:17:22;11.75;;;10.65;;
60722;SDS011;46574;52.818;6.516;2022-08-14T03:19:48;10.70;;;9.82;;
60722;SDS011;46574;52.818;6.516;2022-08-14T03:22:17;11.13;;;9.85;;
60722;SDS011;46574;52.818;6.516;2022-08-14T03:24:42;10.95;;;9.85;;
60722;SDS011;46574;52.818;6.516;2022-08-14T03:27:08;10.20;;;9.20;;
60722;SDS011;46574;52.818;6.516;2022-08-14T03:29:38;10.55;;;9.65;;
60722;SDS011;46574;52.818;6.516;2022-08-14T03:32:05;10.73;;;9.82;;
60722;SDS011;46574;52.818;6.516;2022-08-14T03:34:31;10.40;;;8.68;;
60722;SDS011;46574;52.818;6.516;2022-08-14T03:36:56;10.93;;;10.02;;
60722;SDS011;46574;52.818;6.516;2022-08-14T03:39:22;11.98;;;11.07;;
60722;SDS011;46574;52.818;6.516;2022-08-14T03:41:49;11.73;;;10.52;;
60722;SDS011;46574;52.818;6.516;2022-08-14T03:44:16;9.30;;;8.57;;
60722;SDS011;46574;52.818;6.516;2022-08-14T03:46:42;9.68;;;8.88;;
60722;SDS011;46574;52.818;6.516;2022-08-14T03:49:08;12.52;;;11.43;;
60722;SDS011;46574;52.818;6.516;2022-08-14T03:51:34;11.95;;;10.77;;
60722;SDS011;46574;52.818;6.516;2022-08-14T03:54:01;10.13;;;9.32;;
60722;SDS011;46574;52.818;6.516;2022-08-14T03:56:30;10.90;;;9.90;;
60722;SDS011;46574;52.818;6.516;2022-08-14T03:58:56;12.65;;;11.40;;
60722;SDS011;46574;52.818;6.516;2022-08-14T04:01:24;10.95;;;10.00;;
60722;SDS011;46574;52.818;6.516;2022-08-14T04:03:51;11.13;;;9.98;;
60722;SDS011;46574;52.818;6.516;2022-08-14T04:06:18;11.90;;;10.82;;
60722;SDS011;46574;52.818;6.516;2022-08-14T04:08:46;11.23;;;10.30;;
60722;SDS011;46574;52.818;6.516;2022-08-14T04:11:17;12.05;;;10.88;;
60722;SDS011;46574;52.818;6.516;2022-08-14T04:13:44;12.00;;;10.90;;
60722;SDS011;46574;52.818;6.516;2022-08-14T04:16:11;10.40;;;9.60;;
60722;SDS011;46574;52.818;6.516;2022-08-14T04:18:40;11.27;;;10.38;;
60722;SDS011;46574;52.818;6.516;2022-08-14T04:21:09;9.60;;;8.80;;
60722;SDS011;46574;52.818;6.516;2022-08-14T04:23:35;11.45;;;10.55;;
60722;SDS011;46574;52.818;6.516;2022-08-14T04:26:03;11.70;;;10.60;;
60722;SDS011;46574;52.818;6.516;2022-08-14T04:28:30;10.63;;;9.73;;
60722;SDS011;46574;52.818;6.516;2022-08-14T04:30:56;11.95;;;10.95;;
60722;SDS011;46574;52.818;6.516;2022-08-14T04:33:22;12.23;;;11.13;;
60722;SDS011;46574;52.818;6.516;2022-08-14T04:35:48;9.82;;;9.02;;
60722;SDS011;46574;52.818;6.516;2022-08-14T04:38:15;11.75;;;10.57;;
60722;SDS011;46574;52.818;6.516;2022-08-14T04:41:00;9.95;;;9.15;;
60722;SDS011;46574;52.818;6.516;2022-08-14T04:43:44;10.48;;;9.57;;
60722;SDS011;46574;52.818;6.516;2022-08-14T04:46:13;11.68;;;10.60;;
60722;SDS011;46574;52.818;6.516;2022-08-14T04:48:41;11.48;;;10.48;;
60722;SDS011;46574;52.818;6.516;2022-08-14T04:51:08;12.45;;;11.40;;
60722;SDS011;46574;52.818;6.516;2022-08-14T04:53:35;10.07;;;9.18;;
60722;SDS011;46574;52.818;6.516;2022-08-14T04:56:04;12.88;;;11.38;;
60722;SDS011;46574;52.818;6.516;2022-08-14T04:58:31;11.90;;;10.90;;
60722;SDS011;46574;52.818;6.516;2022-08-14T05:00:57;12.15;;;11.10;;
60722;SDS011;46574;52.818;6.516;2022-08-14T05:03:25;10.07;;;9.20;;
60722;SDS011;46574;52.818;6.516;2022-08-14T05:05:54;9.75;;;8.95;;
60722;SDS011;46574;52.818;6.516;2022-08-14T05:08:21;12.55;;;11.52;;
60722;SDS011;46574;52.818;6.516;2022-08-14T05:10:49;11.43;;;10.27;;
60722;SDS011;46574;52.818;6.516;2022-08-14T05:13:18;11.60;;;10.60;;
60722;SDS011;46574;52.818;6.516;2022-08-14T05:15:44;11.52;;;10.52;;
60722;SDS011;46574;52.818;6.516;2022-08-14T05:18:11;11.77;;;10.82;;
60722;SDS011;46574;52.818;6.516;2022-08-14T05:20:40;9.02;;;8.32;;
60722;SDS011;46574;52.818;6.516;2022-08-14T05:23:14;12.88;;;11.57;;
60722;SDS011;46574;52.818;6.516;2022-08-14T05:25:42;9.93;;;9.13;;
60722;SDS011;46574;52.818;6.516;2022-08-14T05:30:53;12.52;;;11.25;;
60722;SDS011;46574;52.818;6.516;2022-08-14T05:33:21;12.07;;;10.80;;
60722;SDS011;46574;52.818;6.516;2022-08-14T05:35:49;9.38;;;8.57;;
60722;SDS011;46574;52.818;6.516;2022-08-14T05:38:17;8.93;;;8.23;;
60722;SDS011;46574;52.818;6.516;2022-08-14T05:40:46;8.88;;;8.18;;
60722;SDS011;46574;52.818;6.516;2022-08-14T05:43:13;11.25;;;10.25;;
60722;SDS011;46574;52.818;6.516;2022-08-14T05:45:39;10.82;;;9.93;;
60722;SDS011;46574;52.818;6.516;2022-08-14T05:48:06;11.18;;;10.18;;
60722;SDS011;46574;52.818;6.516;2022-08-14T05:50:33;11.45;;;10.45;;
60722;SDS011;46574;52.818;6.516;2022-08-14T05:52:59;11.02;;;10.02;;
60722;SDS011;46574;52.818;6.516;2022-08-14T05:55:25;11.98;;;10.98;;
60722;SDS011;46574;52.818;6.516;2022-08-14T05:57:56;12.43;;;11.32;;
60722;SDS011;46574;52.818;6.516;2022-08-14T06:00:25;11.23;;;10.23;;
60722;SDS011;46574;52.818;6.516;2022-08-14T06:02:53;11.68;;;10.68;;
60722;SDS011;46574;52.818;6.516;2022-08-14T06:05:21;10.88;;;9.98;;
60722;SDS011;46574;52.818;6.516;2022-08-14T06:07:47;12.02;;;11.13;;
60722;SDS011;46574;52.818;6.516;2022-08-14T06:10:13;11.88;;;10.77;;
60722;SDS011;46574;52.818;6.516;2022-08-14T06:12:39;12.27;;;11.27;;
60722;SDS011;46574;52.818;6.516;2022-08-14T06:15:05;11.38;;;10.45;;
60722;SDS011;46574;52.818;6.516;2022-08-14T06:17:44;11.03;;;10.23;;
60722;SDS011;46574;52.818;6.516;2022-08-14T06:20:14;12.60;;;11.45;;
60722;SDS011;46574;52.818;6.516;2022-08-14T06:22:41;11.43;;;10.43;;
60722;SDS011;46574;52.818;6.516;2022-08-14T06:25:08;10.57;;;9.77;;
60722;SDS011;46574;52.818;6.516;2022-08-14T06:27:36;11.38;;;10.48;;
60722;SDS011;46574;52.818;6.516;2022-08-14T06:30:06;11.20;;;10.20;;
60722;SDS011;46574;52.818;6.516;2022-08-14T06:32:34;11.35;;;10.32;;
60722;SDS011;46574;52.818;6.516;2022-08-14T06:35:01;9.70;;;8.80;;
60722;SDS011;46574;52.818;6.516;2022-08-14T06:37:37;11.82;;;10.82;;
60722;SDS011;46574;52.818;6.516;2022-08-14T06:40:12;13.05;;;11.75;;
60722;SDS011;46574;52.818;6.516;2022-08-14T06:42:39;11.40;;;10.40;;
60722;SDS011;46574;52.818;6.516;2022-08-14T06:45:05;11.10;;;10.30;;
60722;SDS011;46574;52.818;6.516;2022-08-14T06:47:32;10.60;;;9.70;;
60722;SDS011;46574;52.818;6.516;2022-08-14T06:49:59;11.17;;;10.33;;
60722;SDS011;46574;52.818;6.516;2022-08-14T06:52:26;11.52;;;10.63;;
60722;SDS011;46574;52.818;6.516;2022-08-14T06:54:51;11.07;;;10.10;;
60722;SDS011;46574;52.818;6.516;2022-08-14T06:57:17;10.90;;;9.85;;
60722;SDS011;46574;52.818;6.516;2022-08-14T06:59:43;11.27;;;10.30;;
60722;SDS011;46574;52.818;6.516;2022-08-14T07:02:09;10.98;;;10.07;;
60722;SDS011;46574;52.818;6.516;2022-08-14T07:04:53;9.65;;;8.95;;
60722;SDS011;46574;52.818;6.516;2022-08-14T07:07:38;9.32;;;8.63;;
60722;SDS011;46574;52.818;6.516;2022-08-14T07:10:05;9.73;;;8.82;;
60722;SDS011;46574;52.818;6.516;2022-08-14T07:12:32;9.95;;;9.18;;
60722;SDS011;46574;52.818;6.516;2022-08-14T07:14:58;10.18;;;9.32;;
60722;SDS011;46574;52.818;6.516;2022-08-14T07:17:24;10.23;;;9.23;;
60722;SDS011;46574;52.818;6.516;2022-08-14T07:19:50;10.00;;;9.20;;
60722;SDS011;46574;52.818;6.516;2022-08-14T07:22:16;10.00;;;9.18;;
60722;SDS011;46574;52.818;6.516;2022-08-14T07:24:42;9.15;;;8.45;;
60722;SDS011;46574;52.818;6.516;2022-08-14T07:27:08;8.90;;;8.20;;
60722;SDS011;46574;52.818;6.516;2022-08-14T07:29:34;9.65;;;8.95;;
60722;SDS011;46574;52.818;6.516;2022-08-14T07:32:00;8.77;;;8.00;;
60722;SDS011;46574;52.818;6.516;2022-08-14T07:34:25;8.68;;;7.88;;
60722;SDS011;46574;52.818;6.516;2022-08-14T07:36:51;8.75;;;8.05;;
60722;SDS011;46574;52.818;6.516;2022-08-14T07:39:18;9.18;;;8.52;;
60722;SDS011;46574;52.818;6.516;2022-08-14T07:41:44;9.20;;;8.50;;
60722;SDS011;46574;52.818;6.516;2022-08-14T07:44:09;9.85;;;8.95;;
60722;SDS011;46574;52.818;6.516;2022-08-14T07:46:35;9.40;;;8.52;;
60722;SDS011;46574;52.818;6.516;2022-08-14T07:49:02;9.27;;;8.45;;
60722;SDS011;46574;52.818;6.516;2022-08-14T07:51:28;8.85;;;8.00;;
60722;SDS011;46574;52.818;6.516;2022-08-14T07:53:54;8.45;;;7.68;;
60722;SDS011;46574;52.818;6.516;2022-08-14T07:56:19;9.55;;;8.65;;
60722;SDS011;46574;52.818;6.516;2022-08-14T07:58:45;9.82;;;8.95;;
60722;SDS011;46574;52.818;6.516;2022-08-14T08:01:11;9.90;;;8.90;;
60722;SDS011;46574;52.818;6.516;2022-08-14T08:03:37;9.30;;;8.45;;
60722;SDS011;46574;52.818;6.516;2022-08-14T08:06:07;8.75;;;8.00;;
60722;SDS011;46574;52.818;6.516;2022-08-14T08:08:32;9.75;;;8.93;;
60722;SDS011;46574;52.818;6.516;2022-08-14T08:10:58;9.27;;;8.52;;
60722;SDS011;46574;52.818;6.516;2022-08-14T08:13:26;8.43;;;7.82;;
60722;SDS011;46574;52.818;6.516;2022-08-14T08:15:54;8.80;;;8.10;;
60722;SDS011;46574;52.818;6.516;2022-08-14T08:18:21;9.55;;;8.75;;
60722;SDS011;46574;52.818;6.516;2022-08-14T08:20:51;8.63;;;7.95;;
60722;SDS011;46574;52.818;6.516;2022-08-14T08:23:21;9.25;;;8.55;;
60722;SDS011;46574;52.818;6.516;2022-08-14T08:25:49;9.20;;;8.43;;
60722;SDS011;46574;52.818;6.516;2022-08-14T08:31:03;8.90;;;8.15;;
60722;SDS011;46574;52.818;6.516;2022-08-14T08:36:00;7.95;;;7.35;;
60722;SDS011;46574;52.818;6.516;2022-08-14T08:38:31;8.25;;;7.65;;
60722;SDS011;46574;52.818;6.516;2022-08-14T08:40:57;8.18;;;7.55;;
60722;SDS011;46574;52.818;6.516;2022-08-14T08:46:06;8.38;;;7.72;;
60722;SDS011;46574;52.818;6.516;2022-08-14T08:51:35;7.78;;;7.13;;
60722;SDS011;46574;52.818;6.516;2022-08-14T08:54:09;8.18;;;7.57;;
60722;SDS011;46574;52.818;6.516;2022-08-14T08:59:16;8.02;;;7.32;;
60722;SDS011;46574;52.818;6.516;2022-08-14T09:02:03;8.32;;;7.63;;
60722;SDS011;46574;52.818;6.516;2022-08-14T09:04:35;7.93;;;7.18;;
60722;SDS011;46574;52.818;6.516;2022-08-14T09:07:06;7.15;;;6.55;;
60722;SDS011;46574;52.818;6.516;2022-08-14T09:09:32;7.75;;;7.15;;
60722;SDS011;46574;52.818;6.516;2022-08-14T09:11:59;7.38;;;6.88;;
60722;SDS011;46574;52.818;6.516;2022-08-14T09:14:26;7.72;;;7.20;;
60722;SDS011;46574;52.818;6.516;2022-08-14T09:16:53;7.72;;;7.13;;
60722;SDS011;46574;52.818;6.516;2022-08-14T09:19:23;6.97;;;6.47;;
60722;SDS011;46574;52.818;6.516;2022-08-14T09:21:50;7.72;;;7.03;;
60722;SDS011;46574;52.818;6.516;2022-08-14T09:24:17;7.72;;;7.13;;
60722;SDS011;46574;52.818;6.516;2022-08-14T09:26:44;7.40;;;6.80;;
60722;SDS011;46574;52.818;6.516;2022-08-14T09:29:10;6.90;;;6.40;;
60722;SDS011;46574;52.818;6.516;2022-08-14T09:31:37;7.82;;;7.32;;
60722;SDS011;46574;52.818;6.516;2022-08-14T09:34:20;7.63;;;7.00;;
60722;SDS011;46574;52.818;6.516;2022-08-14T09:37:09;6.85;;;6.35;;
60722;SDS011;46574;52.818;6.516;2022-08-14T09:40:07;6.68;;;6.20;;
60722;SDS011;46574;52.818;6.516;2022-08-14T09:48:15;7.55;;;6.95;;
60722;SDS011;46574;52.818;6.516;2022-08-14T09:50:49;6.97;;;6.47;;
60722;SDS011;46574;52.818;6.516;2022-08-14T09:53:39;7.85;;;7.25;;
60722;SDS011;46574;52.818;6.516;2022-08-14T09:56:12;6.78;;;6.38;;
60722;SDS011;46574;52.818;6.516;2022-08-14T09:58:44;7.68;;;7.07;;
60722;SDS011;46574;52.818;6.516;2022-08-14T10:01:14;7.05;;;6.45;;
60722;SDS011;46574;52.818;6.516;2022-08-14T10:03:49;8.15;;;7.55;;
60722;SDS011;46574;52.818;6.516;2022-08-14T10:06:26;7.50;;;7.00;;
60722;SDS011;46574;52.818;6.516;2022-08-14T10:08:56;8.23;;;7.43;;
60722;SDS011;46574;52.818;6.516;2022-08-14T10:11:28;7.40;;;6.88;;
60722;SDS011;46574;52.818;6.516;2022-08-14T10:14:10;7.20;;;6.70;;
60722;SDS011;46574;52.818;6.516;2022-08-14T10:16:44;6.90;;;6.40;;
60722;SDS011;46574;52.818;6.516;2022-08-14T10:19:18;7.00;;;6.50;;
60722;SDS011;46574;52.818;6.516;2022-08-14T10:22:02;7.28;;;6.78;;
60722;SDS011;46574;52.818;6.516;2022-08-14T10:24:41;6.97;;;6.38;;
60722;SDS011;46574;52.818;6.516;2022-08-14T10:27:23;7.90;;;7.40;;
60722;SDS011;46574;52.818;6.516;2022-08-14T10:29:51;7.45;;;6.88;;
60722;SDS011;46574;52.818;6.516;2022-08-14T10:32:18;7.10;;;6.60;;
60722;SDS011;46574;52.818;6.516;2022-08-14T10:34:46;7.22;;;6.68;;
60722;SDS011;46574;52.818;6.516;2022-08-14T10:37:12;7.45;;;6.75;;
60722;SDS011;46574;52.818;6.516;2022-08-14T10:39:41;6.88;;;6.38;;
60722;SDS011;46574;52.818;6.516;2022-08-14T10:44:45;7.05;;;6.63;;
60722;SDS011;46574;52.818;6.516;2022-08-14T10:47:13;8.13;;;7.53;;
60722;SDS011;46574;52.818;6.516;2022-08-14T10:49:43;8.05;;;7.45;;
60722;SDS011;46574;52.818;6.516;2022-08-14T10:52:23;7.28;;;6.78;;
60722;SDS011;46574;52.818;6.516;2022-08-14T10:54:51;6.97;;;6.47;;
60722;SDS011;46574;52.818;6.516;2022-08-14T10:57:31;7.70;;;7.00;;
60722;SDS011;46574;52.818;6.516;2022-08-14T11:00:00;6.38;;;5.93;;
60722;SDS011;46574;52.818;6.516;2022-08-14T11:02:37;7.20;;;6.70;;
60722;SDS011;46574;52.818;6.516;2022-08-14T11:07:34;6.57;;;6.07;;
60722;SDS011;46574;52.818;6.516;2022-08-14T11:10:09;7.40;;;6.80;;
60722;SDS011;46574;52.818;6.516;2022-08-14T11:12:41;7.70;;;7.00;;
60722;SDS011;46574;52.818;6.516;2022-08-14T11:15:13;8.27;;;7.57;;
60722;SDS011;46574;52.818;6.516;2022-08-14T11:17:41;7.43;;;6.93;;
60722;SDS011;46574;52.818;6.516;2022-08-14T11:20:08;6.70;;;6.20;;
60722;SDS011;46574;52.818;6.516;2022-08-14T11:22:35;6.85;;;6.28;;
60722;SDS011;46574;52.818;6.516;2022-08-14T11:25:05;6.40;;;5.90;;
60722;SDS011;46574;52.818;6.516;2022-08-14T11:27:33;6.82;;;6.25;;
60722;SDS011;46574;52.818;6.516;2022-08-14T11:30:00;6.70;;;6.13;;
60722;SDS011;46574;52.818;6.516;2022-08-14T11:32:30;6.63;;;6.13;;
60722;SDS011;46574;52.818;6.516;2022-08-14T11:34:57;7.18;;;6.57;;
60722;SDS011;46574;52.818;6.516;2022-08-14T11:37:23;7.07;;;6.47;;
60722;SDS011;46574;52.818;6.516;2022-08-14T11:39:49;6.97;;;6.38;;
60722;SDS011;46574;52.818;6.516;2022-08-14T11:42:19;6.65;;;6.25;;
60722;SDS011;46574;52.818;6.516;2022-08-14T11:44:48;7.97;;;7.40;;
60722;SDS011;46574;52.818;6.516;2022-08-14T11:47:14;7.25;;;6.75;;
60722;SDS011;46574;52.818;6.516;2022-08-14T11:49:46;7.50;;;6.90;;
60722;SDS011;46574;52.818;6.516;2022-08-14T11:52:13;7.50;;;6.90;;
60722;SDS011;46574;52.818;6.516;2022-08-14T11:54:40;7.05;;;6.45;;
60722;SDS011;46574;52.818;6.516;2022-08-14T11:57:13;6.97;;;6.47;;
60722;SDS011;46574;52.818;6.516;2022-08-14T11:59:40;7.05;;;6.53;;
60722;SDS011;46574;52.818;6.516;2022-08-14T12:02:14;7.18;;;6.68;;
60722;SDS011;46574;52.818;6.516;2022-08-14T12:04:50;7.18;;;6.68;;
60722;SDS011;46574;52.818;6.516;2022-08-14T12:07:16;7.22;;;6.63;;
60722;SDS011;46574;52.818;6.516;2022-08-14T12:09:43;8.52;;;7.75;;
60722;SDS011;46574;52.818;6.516;2022-08-14T12:12:20;7.22;;;6.72;;
60722;SDS011;46574;52.818;6.516;2022-08-14T12:17:24;7.97;;;7.38;;
60722;SDS011;46574;52.818;6.516;2022-08-14T12:19:54;7.50;;;6.97;;
60722;SDS011;46574;52.818;6.516;2022-08-14T12:22:40;7.80;;;7.20;;
60722;SDS011;46574;52.818;6.516;2022-08-14T12:25:11;7.70;;;7.20;;
60722;SDS011;46574;52.818;6.516;2022-08-14T12:27:57;7.90;;;7.30;;
60722;SDS011;46574;52.818;6.516;2022-08-14T12:30:26;7.80;;;7.20;;
60722;SDS011;46574;52.818;6.516;2022-08-14T12:33:17;7.95;;;7.35;;
60722;SDS011;46574;52.818;6.516;2022-08-14T12:35:50;7.35;;;6.80;;
60722;SDS011;46574;52.818;6.516;2022-08-14T12:38:17;7.57;;;6.97;;
60722;SDS011;46574;52.818;6.516;2022-08-14T12:40:50;7.50;;;6.95;;
60722;SDS011;46574;52.818;6.516;2022-08-14T12:43:18;7.03;;;6.53;;
60722;SDS011;46574;52.818;6.516;2022-08-14T12:45:49;7.10;;;6.60;;
60722;SDS011;46574;52.818;6.516;2022-08-14T12:48:20;6.55;;;6.15;;
60722;SDS011;46574;52.818;6.516;2022-08-14T12:50:47;6.78;;;6.30;;
60722;SDS011;46574;52.818;6.516;2022-08-14T12:53:18;7.57;;;6.88;;
60722;SDS011;46574;52.818;6.516;2022-08-14T12:55:45;7.35;;;6.80;;
60722;SDS011;46574;52.818;6.516;2022-08-14T12:58:26;7.00;;;6.50;;
60722;SDS011;46574;52.818;6.516;2022-08-14T13:00:53;6.65;;;6.25;;
60722;SDS011;46574;52.818;6.516;2022-08-14T13:03:25;6.20;;;5.80;;
60722;SDS011;46574;52.818;6.516;2022-08-14T13:05:52;6.97;;;6.43;;
60722;SDS011;46574;52.818;6.516;2022-08-14T13:08:19;6.85;;;6.35;;
60722;SDS011;46574;52.818;6.516;2022-08-14T13:10:46;6.25;;;5.85;;
60722;SDS011;46574;52.818;6.516;2022-08-14T13:13:14;7.00;;;6.50;;
60722;SDS011;46574;52.818;6.516;2022-08-14T13:15:41;6.15;;;5.65;;
60722;SDS011;46574;52.818;6.516;2022-08-14T13:18:13;5.93;;;5.60;;
60722;SDS011;46574;52.818;6.516;2022-08-14T13:20:40;6.93;;;6.43;;
60722;SDS011;46574;52.818;6.516;2022-08-14T13:23:06;6.43;;;5.82;;
60722;SDS011;46574;52.818;6.516;2022-08-14T13:25:33;5.95;;;5.55;;
60722;SDS011;46574;52.818;6.516;2022-08-14T13:28:04;6.05;;;5.60;;
60722;SDS011;46574;52.818;6.516;2022-08-14T13:30:31;6.43;;;5.88;;
60722;SDS011;46574;52.818;6.516;2022-08-14T13:32:57;6.50;;;6.00;;
60722;SDS011;46574;52.818;6.516;2022-08-14T13:35:26;6.15;;;5.72;;
60722;SDS011;46574;52.818;6.516;2022-08-14T13:37:52;6.90;;;6.40;;
60722;SDS011;46574;52.818;6.516;2022-08-14T13:40:18;5.93;;;5.53;;
60722;SDS011;46574;52.818;6.516;2022-08-14T13:42:47;6.40;;;5.90;;
60722;SDS011;46574;52.818;6.516;2022-08-14T13:45:15;6.22;;;5.82;;
60722;SDS011;46574;52.818;6.516;2022-08-14T13:47:40;6.60;;;6.15;;
60722;SDS011;46574;52.818;6.516;2022-08-14T13:50:08;5.77;;;5.37;;
60722;SDS011;46574;52.818;6.516;2022-08-14T13:52:40;6.18;;;5.68;;
60722;SDS011;46574;52.818;6.516;2022-08-14T13:55:11;6.40;;;6.00;;
60722;SDS011;46574;52.818;6.516;2022-08-14T13:57:40;5.88;;;5.47;;
60722;SDS011;46574;52.818;6.516;2022-08-14T14:00:09;5.45;;;5.05;;
60722;SDS011;46574;52.818;6.516;2022-08-14T14:02:45;6.10;;;5.70;;
60722;SDS011;46574;52.818;6.516;2022-08-14T14:05:13;6.10;;;5.60;;
60722;SDS011;46574;52.818;6.516;2022-08-14T14:07:46;5.97;;;5.57;;
60722;SDS011;46574;52.818;6.516;2022-08-14T14:10:15;5.82;;;5.38;;
60722;SDS011;46574;52.818;6.516;2022-08-14T14:12:43;6.20;;;5.70;;
60722;SDS011;46574;52.818;6.516;2022-08-14T14:15:13;5.75;;;5.35;;
60722;SDS011;46574;52.818;6.516;2022-08-14T14:17:41;5.80;;;5.40;;
60722;SDS011;46574;52.818;6.516;2022-08-14T14:20:09;6.57;;;6.07;;
60722;SDS011;46574;52.818;6.516;2022-08-14T14:22:41;5.60;;;5.20;;
60722;SDS011;46574;52.818;6.516;2022-08-14T14:25:09;6.53;;;6.10;;
60722;SDS011;46574;52.818;6.516;2022-08-14T14:27:37;5.85;;;5.45;;
60722;SDS011;46574;52.818;6.516;2022-08-14T14:30:06;6.32;;;5.80;;
60722;SDS011;46574;52.818;6.516;2022-08-14T14:32:33;6.10;;;5.60;;
60722;SDS011;46574;52.818;6.516;2022-08-14T14:35:11;5.95;;;5.47;;
60722;SDS011;46574;52.818;6.516;2022-08-14T14:40:14;6.13;;;5.70;;
60722;SDS011;46574;52.818;6.516;2022-08-14T14:42:45;6.60;;;6.10;;
60722;SDS011;46574;52.818;6.516;2022-08-14T14:45:14;6.10;;;5.70;;
60722;SDS011;46574;52.818;6.516;2022-08-14T14:47:44;6.13;;;5.70;;
60722;SDS011;46574;52.818;6.516;2022-08-14T14:50:13;6.60;;;6.20;;
60722;SDS011;46574;52.818;6.516;2022-08-14T14:52:39;6.30;;;5.80;;
60722;SDS011;46574;52.818;6.516;2022-08-14T14:55:07;5.70;;;5.30;;
60722;SDS011;46574;52.818;6.516;2022-08-14T14:57:36;5.82;;;5.43;;
60722;SDS011;46574;52.818;6.516;2022-08-14T15:00:04;6.28;;;5.78;;
60722;SDS011;46574;52.818;6.516;2022-08-14T15:02:35;6.55;;;6.05;;
60722;SDS011;46574;52.818;6.516;2022-08-14T15:05:03;6.03;;;5.63;;
60722;SDS011;46574;52.818;6.516;2022-08-14T15:07:32;6.50;;;6.00;;
60722;SDS011;46574;52.818;6.516;2022-08-14T15:09:58;6.30;;;5.82;;
60722;SDS011;46574;52.818;6.516;2022-08-14T15:12:24;6.25;;;5.85;;
60722;SDS011;46574;52.818;6.516;2022-08-14T15:14:50;6.00;;;5.50;;
60722;SDS011;46574;52.818;6.516;2022-08-14T15:17:16;6.88;;;6.28;;
60722;SDS011;46574;52.818;6.516;2022-08-14T15:19:41;6.30;;;5.80;;
60722;SDS011;46574;52.818;6.516;2022-08-14T15:22:08;5.95;;;5.55;;
60722;SDS011;46574;52.818;6.516;2022-08-14T15:24:33;5.85;;;5.32;;